createdAt,value
2023-06-10T00:00:46.593Z,86.38
2023-06-10T00:03:35.003Z,88.21
2023-06-10T00:06:03.546Z,88.68
2023-06-10T00:08:32.073Z,86.60
2023-06-10T00:11:00.518Z,86.71
2023-06-10T00:13:28.812Z,85.26
2023-06-10T00:15:57.251Z,87.65
2023-06-10T00:18:28.224Z,89.33
2023-06-10T00:20:56.507Z,88.03
2023-06-10T00:23:26.373Z,88.16
2023-06-10T00:25:54.577Z,87.98
2023-06-10T00:28:22.831Z,87.03
2023-06-10T00:30:51.132Z,86.59
2023-06-10T00:33:19.454Z,86.21
2023-06-10T00:35:47.947Z,86.16
2023-06-10T00:38:16.162Z,85.55
2023-06-10T00:40:45.885Z,85.62
2023-06-10T00:43:14.311Z,88.18
2023-06-10T00:45:42.781Z,88.61
2023-06-10T00:48:11.392Z,88.46
2023-06-10T00:50:42.870Z,87.78
2023-06-10T00:53:12.150Z,87.34
2023-06-10T00:55:42.438Z,86.90
2023-06-10T00:58:31.139Z,86.33
2023-06-10T01:04:05.287Z,86.50
2023-06-10T01:07:14.630Z,86.03
2023-06-10T01:09:58.466Z,86.90
2023-06-10T01:12:50.074Z,86.46
2023-06-10T01:15:19.509Z,87.48
2023-06-10T01:18:17.997Z,86.67
2023-06-10T01:20:47.575Z,86.37
2023-06-10T01:23:16.867Z,87.42
2023-06-10T01:25:56.163Z,86.87
2023-06-10T01:28:33.257Z,87.30
2023-06-10T01:31:14.624Z,87.77
2023-06-10T01:33:47.224Z,87.42
2023-06-10T01:36:18.514Z,86.71
2023-06-10T01:38:48.997Z,86.33
2023-06-10T01:41:18.877Z,86.98
2023-06-10T01:43:47.417Z,86.57
2023-06-10T01:46:16.961Z,86.96
2023-06-10T01:48:45.270Z,87.14
2023-06-10T01:51:13.592Z,86.83
2023-06-10T01:53:41.807Z,86.91
2023-06-10T01:56:09.977Z,86.31
2023-06-10T01:58:38.228Z,87.02
2023-06-10T02:01:06.754Z,86.66
2023-06-10T02:03:35.078Z,86.74
2023-06-10T02:06:04.907Z,87.44
2023-06-10T02:08:33.057Z,87.13
2023-06-10T02:11:02.528Z,87.44
2023-06-10T02:13:31.641Z,87.54
2023-06-10T02:16:01.061Z,87.37
2023-06-10T02:18:31.236Z,86.72
2023-06-10T02:20:59.291Z,86.72
2023-06-10T02:23:28.103Z,87.34
2023-06-10T02:25:56.815Z,87.87
2023-06-10T02:28:27.027Z,87.95
2023-06-10T02:30:55.230Z,88.47
2023-06-10T02:33:24.437Z,88.23
2023-06-10T02:35:52.668Z,88.67
2023-06-10T02:38:21.210Z,88.15
2023-06-10T02:40:50.080Z,88.16
2023-06-10T02:43:18.671Z,87.67
2023-06-10T02:45:47.571Z,87.59
2023-06-10T02:48:15.929Z,87.71
2023-06-10T02:50:44.101Z,88.01
2023-06-10T02:53:18.677Z,86.97
2023-06-10T02:55:50.540Z,86.90
2023-06-10T02:58:19.388Z,86.41
2023-06-10T03:00:48.262Z,86.64
2023-06-10T03:03:17.402Z,89.43
2023-06-10T03:05:57.927Z,90.46
2023-06-10T03:08:27.547Z,89.57
2023-06-10T03:10:56.835Z,90.04
2023-06-10T03:13:25.320Z,90.20
2023-06-10T03:15:53.615Z,90.51
2023-06-10T03:18:24.408Z,89.69
2023-06-10T03:20:53.663Z,90.36
2023-06-10T03:23:22.520Z,89.82
2023-06-10T03:25:50.810Z,89.34
2023-06-10T03:28:20.829Z,89.92
2023-06-10T03:30:49.515Z,89.32
2023-06-10T03:33:18.329Z,88.89
2023-06-10T03:35:46.687Z,89.54
2023-06-10T03:38:15.675Z,90.14
2023-06-10T03:40:43.980Z,89.02
2023-06-10T03:43:12.261Z,88.59
2023-06-10T03:45:42.314Z,89.28
2023-06-10T03:48:12.360Z,90.29
2023-06-10T03:50:45.996Z,93.17
2023-06-10T03:53:14.448Z,92.37
2023-06-10T03:55:43.911Z,93.70
2023-06-10T03:58:14.396Z,91.53
2023-06-10T04:00:43.121Z,92.55
2023-06-10T04:03:15.868Z,91.66
2023-06-10T04:05:49.682Z,91.12
2023-06-10T04:08:17.869Z,90.22
2023-06-10T04:10:46.455Z,90.35
2023-06-10T04:13:15.860Z,90.66
2023-06-10T04:15:51.071Z,90.29
2023-06-10T04:18:19.420Z,89.41
2023-06-10T04:20:47.777Z,88.82
2023-06-10T04:23:16.332Z,89.18
2023-06-10T04:25:45.938Z,89.27
2023-06-10T04:28:14.242Z,89.42
2023-06-10T04:30:42.989Z,89.57
2023-06-10T04:33:11.396Z,90.97
2023-06-10T04:35:40.456Z,90.49
2023-06-10T04:38:09.570Z,89.43
2023-06-10T04:40:37.716Z,89.31
2023-06-10T04:43:06.250Z,88.66
2023-06-10T04:45:34.872Z,88.32
2023-06-10T04:50:34.204Z,88.41
2023-06-10T04:53:02.402Z,87.88
2023-06-10T04:55:31.163Z,88.11
2023-06-10T04:57:59.503Z,87.58
2023-06-10T05:00:27.787Z,86.65
2023-06-10T05:02:57.635Z,86.25
2023-06-10T05:05:26.351Z,85.69
2023-06-10T05:07:54.713Z,86.21
2023-06-10T05:10:23.220Z,86.30
2023-06-10T05:12:51.485Z,87.02
2023-06-10T05:15:19.883Z,86.52
2023-06-10T05:17:48.288Z,85.65
2023-06-10T05:20:16.678Z,85.70
2023-06-10T05:22:45.873Z,84.56
2023-06-10T05:25:14.129Z,83.15
2023-06-10T05:27:43.361Z,83.51
2023-06-10T05:30:12.579Z,82.51
2023-06-10T05:32:40.908Z,81.95
2023-06-10T05:35:09.591Z,81.74
2023-06-10T05:37:38.229Z,81.36
2023-06-10T05:40:07.475Z,79.98
2023-06-10T05:42:35.880Z,77.13
2023-06-10T05:45:04.702Z,78.42
2023-06-10T05:47:33.112Z,76.76
2023-06-10T05:50:01.747Z,76.29
2023-06-10T05:52:30.781Z,71.10
2023-06-10T05:55:00.698Z,72.42
2023-06-10T05:57:28.967Z,67.83
2023-06-10T05:59:57.301Z,68.23
2023-06-10T06:02:25.817Z,71.40
2023-06-10T06:04:54.426Z,70.83
2023-06-10T06:07:22.969Z,66.44
2023-06-10T06:09:51.437Z,69.29
2023-06-10T06:12:19.915Z,67.15
2023-06-10T06:14:50.392Z,65.93
2023-06-10T06:17:18.652Z,65.51
2023-06-10T06:19:49.057Z,65.35
2023-06-10T06:22:21.616Z,64.64
2023-06-10T06:24:50.945Z,65.94
2023-06-10T06:27:19.497Z,64.18
2023-06-10T06:29:48.227Z,64.33
2023-06-10T06:32:17.116Z,65.03
2023-06-10T06:34:45.499Z,63.26
2023-06-10T06:37:13.841Z,63.41
2023-06-10T06:39:43.185Z,62.40
2023-06-10T06:42:11.717Z,62.87
2023-06-10T06:44:52.477Z,61.32
2023-06-10T06:47:21.393Z,60.69
2023-06-10T06:49:49.820Z,61.58
2023-06-10T06:52:18.176Z,57.80
2023-06-10T06:54:46.698Z,56.56
2023-06-10T06:57:15.215Z,54.82
2023-06-10T06:59:43.405Z,55.41
2023-06-10T07:02:11.857Z,57.51
2023-06-10T07:04:42.348Z,56.37
2023-06-10T07:07:10.795Z,56.33
2023-06-10T07:09:39.496Z,55.85
2023-06-10T07:12:08.441Z,53.72
2023-06-10T07:14:36.868Z,55.26
2023-06-10T07:17:05.260Z,53.78
2023-06-10T07:19:33.727Z,51.91
2023-06-10T07:22:02.047Z,53.74
2023-06-10T07:24:30.327Z,53.76
2023-06-10T07:26:58.681Z,53.37
2023-06-10T07:29:26.942Z,52.57
2023-06-10T07:31:55.192Z,52.36
2023-06-10T07:34:23.447Z,52.05
2023-06-10T07:36:51.670Z,50.74
2023-06-10T07:39:19.929Z,50.52
2023-06-10T07:41:50.244Z,50.49
2023-06-10T07:44:18.572Z,50.13
2023-06-10T07:46:46.997Z,49.39
2023-06-10T07:49:15.580Z,49.30
2023-06-10T07:51:44.133Z,49.61
2023-06-10T07:54:13.951Z,49.64
2023-06-10T07:56:43.269Z,49.41
2023-06-10T07:59:11.522Z,49.31
2023-06-10T08:01:40.990Z,48.32
2023-06-10T08:04:09.677Z,48.20
2023-06-10T08:06:38.034Z,48.87
2023-06-10T08:09:06.351Z,48.37
2023-06-10T08:11:34.673Z,47.04
2023-06-10T08:14:03.371Z,47.53
2023-06-10T08:16:31.896Z,47.35
2023-06-10T08:19:00.245Z,47.65
2023-06-10T08:21:29.772Z,47.48
2023-06-10T08:23:58.685Z,47.23
2023-06-10T08:26:27.381Z,46.96
2023-06-10T08:28:56.863Z,46.80
2023-06-10T08:31:25.268Z,46.33
2023-06-10T08:33:53.635Z,46.96
2023-06-10T08:36:21.797Z,45.81
2023-06-10T08:38:49.901Z,46.55
2023-06-10T08:41:19.097Z,42.46
2023-06-10T08:44:00.886Z,43.52
2023-06-10T08:46:32.691Z,42.88
2023-06-10T08:49:06.348Z,44.16
2023-06-10T08:51:37.242Z,42.29
2023-06-10T08:54:16.681Z,42.11
2023-06-10T08:56:46.923Z,41.26
2023-06-10T08:59:17.603Z,40.35
2023-06-10T09:01:46.592Z,41.54
2023-06-10T09:04:15.513Z,38.75
2023-06-10T09:06:44.412Z,35.12
2023-06-10T09:09:13.654Z,36.13
2023-06-10T09:11:45.407Z,35.23
2023-06-10T09:14:14.231Z,35.47
2023-06-10T09:16:43.469Z,37.23
2023-06-10T09:19:12.697Z,38.09
2023-06-10T09:21:42.496Z,35.74
2023-06-10T09:24:10.999Z,35.67
2023-06-10T09:26:39.324Z,34.78
2023-06-10T09:29:13.022Z,34.22
2023-06-10T09:31:44.717Z,34.44
2023-06-10T09:34:15.081Z,33.70
2023-06-10T09:36:44.144Z,35.23
2023-06-10T09:39:19.784Z,35.01
2023-06-10T09:41:48.162Z,35.79
2023-06-10T09:44:18.243Z,34.62
2023-06-10T09:46:48.187Z,35.85
2023-06-10T09:49:18.163Z,36.32
2023-06-10T09:51:54.284Z,34.97
2023-06-10T09:54:23.358Z,34.58
2023-06-10T09:56:53.715Z,33.21
2023-06-10T09:59:33.403Z,35.08
2023-06-10T10:02:02.055Z,35.50
2023-06-10T10:04:30.668Z,35.32
2023-06-10T10:07:00.867Z,36.70
2023-06-10T10:09:29.344Z,36.67
2023-06-10T10:11:59.087Z,36.04
2023-06-10T10:14:33.661Z,37.77
2023-06-10T10:17:05.632Z,37.05
2023-06-10T10:19:40.185Z,37.91
2023-06-10T10:22:16.801Z,36.17
2023-06-10T10:24:52.544Z,35.91
2023-06-10T10:27:37.158Z,32.47
2023-06-10T10:30:09.940Z,32.72
2023-06-10T10:33:09.268Z,31.59
2023-06-10T10:35:39.213Z,32.57
2023-06-10T10:38:07.750Z,31.51
2023-06-10T10:40:36.794Z,31.25
2023-06-10T10:43:07.011Z,30.94
2023-06-10T10:45:36.331Z,30.47
2023-06-10T10:48:13.422Z,31.69
2023-06-10T10:50:41.960Z,30.11
2023-06-10T10:53:10.418Z,30.96
2023-06-10T10:55:38.827Z,31.73
2023-06-10T10:58:08.915Z,32.35
2023-06-10T11:00:47.126Z,32.31
2023-06-10T11:03:18.374Z,33.04
2023-06-10T11:05:50.330Z,31.84
2023-06-10T11:08:45.393Z,32.19
2023-06-10T11:11:27.226Z,32.53
2023-06-10T11:14:08.003Z,31.96
2023-06-10T11:16:41.790Z,33.09
2023-06-10T11:19:11.285Z,34.18
2023-06-10T11:22:00.256Z,34.20
2023-06-10T11:24:32.485Z,34.06
2023-06-10T11:27:39.650Z,32.69
2023-06-10T11:30:09.033Z,32.15
2023-06-10T11:32:37.431Z,33.14
2023-06-10T11:35:08.708Z,33.27
2023-06-10T11:37:37.545Z,32.05
2023-06-10T11:40:07.959Z,31.42
2023-06-10T11:42:41.785Z,31.51
2023-06-10T11:45:11.028Z,29.83
2023-06-10T11:47:39.646Z,28.46
2023-06-10T11:50:08.200Z,27.92
2023-06-10T11:52:41.727Z,27.41
2023-06-10T11:55:11.231Z,28.70
2023-06-10T11:57:40.051Z,29.74
2023-06-10T12:00:09.037Z,30.51
2023-06-10T12:02:40.307Z,30.52
2023-06-10T12:05:16.041Z,30.79
2023-06-10T12:07:44.409Z,32.61
2023-06-10T12:12:48.100Z,35.13
2023-06-10T12:15:25.423Z,34.42
2023-06-10T12:17:53.909Z,33.65
2023-06-10T12:20:30.730Z,35.62
2023-06-10T12:22:59.063Z,34.35
2023-06-10T12:25:29.314Z,34.81
2023-06-10T12:27:59.385Z,34.65
2023-06-10T12:30:28.935Z,35.14
2023-06-10T12:32:57.902Z,33.93
2023-06-10T12:35:28.911Z,32.82
2023-06-10T12:38:12.475Z,31.83
2023-06-10T12:40:42.089Z,32.68
2023-06-10T12:43:10.889Z,31.67
2023-06-10T12:45:41.364Z,31.81
2023-06-10T12:48:12.582Z,32.11
2023-06-10T12:50:43.266Z,33.75
2023-06-10T12:53:12.680Z,33.32
2023-06-10T12:55:41.188Z,31.54
2023-06-10T12:58:09.803Z,30.31
2023-06-10T13:00:38.401Z,31.92
2023-06-10T13:03:07.286Z,33.20
2023-06-10T13:05:40.229Z,32.83
2023-06-10T13:08:11.427Z,34.36
2023-06-10T13:10:40.219Z,34.42
2023-06-10T13:13:10.975Z,34.64
2023-06-10T13:15:43.788Z,34.72
2023-06-10T13:18:12.726Z,35.31
2023-06-10T13:20:41.280Z,35.18
2023-06-10T13:23:09.581Z,34.94
2023-06-10T13:25:37.957Z,35.71
2023-06-10T13:28:06.306Z,36.03
2023-06-10T13:30:34.619Z,36.54
2023-06-10T13:33:03.208Z,37.27
2023-06-10T13:35:31.561Z,37.86
2023-06-10T13:37:59.989Z,37.36
2023-06-10T13:40:28.337Z,37.81
2023-06-10T13:42:56.852Z,37.78
2023-06-10T13:45:26.108Z,38.59
2023-06-10T13:47:54.509Z,37.67
2023-06-10T13:50:22.877Z,37.50
2023-06-10T13:52:51.271Z,37.63
2023-06-10T13:55:21.418Z,37.53
2023-06-10T13:57:49.768Z,36.90
2023-06-10T14:00:18.891Z,37.09
2023-06-10T14:02:47.979Z,37.81
2023-06-10T14:05:16.725Z,38.29
2023-06-10T14:07:45.005Z,38.64
2023-06-10T14:10:13.415Z,39.39
2023-06-10T14:12:41.836Z,39.91
2023-06-10T14:15:10.773Z,39.57
2023-06-10T14:17:39.513Z,39.13
2023-06-10T14:20:08.526Z,38.88
2023-06-10T14:22:36.944Z,39.09
2023-06-10T14:25:05.786Z,38.60
2023-06-10T14:27:34.148Z,38.48
2023-06-10T14:30:02.476Z,38.08
2023-06-10T14:32:31.118Z,38.45
2023-06-10T14:34:59.575Z,38.46
2023-06-10T14:37:28.082Z,38.48
2023-06-10T14:39:56.426Z,37.72
2023-06-10T14:42:25.016Z,37.81
2023-06-10T14:44:53.312Z,38.45
2023-06-10T14:47:21.791Z,38.53
2023-06-10T14:49:50.025Z,38.13
2023-06-10T14:52:18.499Z,36.37
2023-06-10T14:54:46.977Z,36.26
2023-06-10T14:57:15.350Z,35.74
2023-06-10T14:59:43.638Z,36.29
2023-06-10T15:02:11.984Z,36.17
2023-06-10T15:04:40.379Z,36.07
2023-06-10T15:07:08.770Z,36.69
2023-06-10T15:09:37.150Z,37.14
2023-06-10T15:12:06.940Z,38.79
2023-06-10T15:14:35.569Z,38.17
2023-06-10T15:17:04.337Z,38.46
2023-06-10T15:19:32.700Z,38.47
2023-06-10T15:22:01.020Z,38.60
2023-06-10T15:24:29.266Z,38.97
2023-06-10T15:26:58.012Z,39.17
2023-06-10T15:29:26.508Z,39.59
2023-06-10T15:31:54.942Z,39.69
2023-06-10T15:34:23.346Z,40.74
2023-06-10T15:36:51.621Z,41.38
2023-06-10T15:39:19.998Z,42.81
2023-06-10T15:41:48.448Z,45.39
2023-06-10T15:44:16.828Z,44.89
2023-06-10T15:46:45.682Z,47.31
2023-06-10T15:49:14.164Z,48.79
2023-06-10T15:51:48.174Z,49.05
2023-06-10T15:54:18.322Z,52.13
2023-06-10T15:56:46.609Z,49.93
2023-06-10T15:59:15.046Z,49.23
2023-06-10T16:01:43.473Z,50.38
2023-06-10T16:04:12.225Z,48.96
2023-06-10T16:06:40.693Z,52.01
2023-06-10T16:09:09.922Z,51.63
2023-06-10T16:11:38.323Z,50.68
2023-06-10T16:14:06.690Z,52.27
2023-06-10T16:16:35.193Z,52.06
2023-06-10T16:19:03.532Z,52.59
2023-06-10T16:21:31.916Z,51.89
2023-06-10T16:24:00.292Z,52.58
2023-06-10T16:26:28.663Z,51.58
2023-06-10T16:28:57.096Z,51.63
2023-06-10T16:31:25.929Z,54.08
2023-06-10T16:33:54.318Z,54.02
2023-06-10T16:36:22.617Z,53.60
2023-06-10T16:38:51.803Z,53.19
2023-06-10T16:41:20.267Z,54.13
2023-06-10T16:43:48.503Z,53.44
2023-06-10T16:46:18.116Z,55.23
2023-06-10T16:48:46.843Z,56.67
2023-06-10T16:51:16.249Z,55.34
2023-06-10T16:53:44.559Z,55.97
2023-06-10T16:56:12.987Z,57.02
2023-06-10T16:58:41.231Z,56.58
2023-06-10T17:01:10.282Z,58.05
2023-06-10T17:03:38.793Z,58.73
2023-06-10T17:06:07.153Z,58.70
2023-06-10T17:08:35.652Z,59.01
2023-06-10T17:11:03.973Z,58.64
2023-06-10T17:13:32.626Z,59.40
2023-06-10T17:16:01.142Z,60.45
2023-06-10T17:18:29.612Z,62.43
2023-06-10T17:20:58.842Z,61.16
2023-06-10T17:23:27.169Z,62.77
2023-06-10T17:25:55.485Z,63.21
2023-06-10T17:28:23.776Z,62.39
2023-06-10T17:30:52.033Z,62.84
2023-06-10T17:33:20.480Z,62.72
2023-06-10T17:35:50.210Z,62.86
2023-06-10T17:38:21.164Z,63.44
2023-06-10T17:40:50.213Z,65.23
2023-06-10T17:43:18.928Z,63.98
2023-06-10T17:45:49.753Z,63.59
2023-06-10T17:48:18.622Z,63.56
2023-06-10T17:50:47.051Z,64.81
2023-06-10T17:53:15.518Z,63.76
2023-06-10T17:55:43.916Z,65.61
2023-06-10T17:58:12.231Z,63.33
2023-06-10T18:00:40.684Z,67.35
2023-06-10T18:03:09.106Z,68.04
2023-06-10T18:05:37.448Z,66.81
2023-06-10T18:08:05.804Z,67.22
2023-06-10T18:10:34.039Z,68.23
2023-06-10T18:13:02.915Z,68.03
2023-06-10T18:15:32.119Z,67.20
2023-06-10T18:18:01.624Z,69.43
2023-06-10T18:20:29.898Z,69.27
2023-06-10T18:22:59.454Z,69.47
2023-06-10T18:25:27.717Z,69.00
2023-06-10T18:27:56.549Z,68.88
2023-06-10T18:30:24.790Z,70.10
2023-06-10T18:32:53.066Z,69.95
2023-06-10T18:35:22.467Z,69.89
2023-06-10T18:37:50.873Z,70.73
2023-06-10T18:40:19.340Z,70.82
2023-06-10T18:42:47.652Z,69.83
2023-06-10T18:45:16.296Z,71.15
2023-06-10T18:47:57.672Z,71.90
2023-06-10T18:50:28.212Z,72.50
2023-06-10T18:52:57.650Z,72.40
2023-06-10T18:55:26.080Z,72.96
2023-06-10T18:57:54.481Z,70.91
2023-06-10T19:00:22.729Z,71.82
2023-06-10T19:02:51.250Z,73.16
2023-06-10T19:05:20.186Z,73.53
2023-06-10T19:07:48.504Z,74.39
2023-06-10T19:10:16.919Z,73.90
2023-06-10T19:12:45.341Z,74.95
2023-06-10T19:15:13.732Z,74.96
2023-06-10T19:17:42.672Z,75.10
2023-06-10T19:20:11.500Z,75.43
2023-06-10T19:22:40.010Z,75.26
2023-06-10T19:25:09.019Z,75.64
2023-06-10T19:27:37.755Z,75.42
2023-06-10T19:30:06.838Z,74.81
2023-06-10T19:32:35.213Z,74.20
2023-06-10T19:35:04.977Z,74.94
2023-06-10T19:37:33.195Z,75.61
2023-06-10T19:40:01.554Z,76.11
2023-06-10T19:42:29.939Z,76.55
2023-06-10T19:44:58.323Z,76.91
2023-06-10T19:47:27.036Z,76.74
2023-06-10T19:49:55.550Z,76.78
2023-06-10T19:52:23.805Z,76.11
2023-06-10T19:54:52.107Z,76.42
2023-06-10T19:57:20.530Z,76.11
2023-06-10T19:59:49.042Z,77.04
2023-06-10T20:02:17.466Z,76.36
2023-06-10T20:04:45.999Z,76.59
2023-06-10T20:07:14.401Z,76.81
2023-06-10T20:09:43.137Z,76.57
2023-06-10T20:12:11.628Z,76.58
2023-06-10T20:14:39.995Z,77.18
2023-06-10T20:17:08.319Z,76.48
2023-06-10T20:19:36.809Z,77.01
2023-06-10T20:22:05.421Z,78.10
2023-06-10T20:24:33.873Z,78.62
2023-06-10T20:27:02.353Z,78.44
2023-06-10T20:29:30.839Z,78.29
2023-06-10T20:31:59.199Z,77.76
2023-06-10T20:34:27.847Z,79.42
2023-06-10T20:36:56.371Z,78.88
2023-06-10T20:39:26.126Z,78.03
2023-06-10T20:41:54.338Z,79.35
2023-06-10T20:44:22.714Z,79.05
2023-06-10T20:46:51.556Z,76.66
2023-06-10T20:49:20.077Z,78.82
2023-06-10T20:51:48.520Z,80.10
2023-06-10T20:54:16.956Z,78.20
2023-06-10T20:56:45.962Z,79.45
2023-06-10T20:59:14.265Z,79.15
2023-06-10T21:01:43.012Z,78.42
2023-06-10T21:04:11.631Z,77.75
2023-06-10T21:06:40.928Z,79.00
2023-06-10T21:09:09.346Z,78.96
2023-06-10T21:11:37.646Z,79.55
2023-06-10T21:14:08.457Z,79.28
2023-06-10T21:16:38.463Z,79.38
2023-06-10T21:19:06.834Z,79.43
2023-06-10T21:21:35.122Z,80.00
2023-06-10T21:24:03.707Z,81.30
2023-06-10T21:26:32.068Z,81.37
2023-06-10T21:29:00.872Z,81.44
2023-06-10T21:31:31.614Z,80.91
2023-06-10T21:34:00.104Z,79.65
2023-06-10T21:36:28.576Z,81.27
2023-06-10T21:38:56.958Z,81.71
2023-06-10T21:41:25.666Z,81.43
2023-06-10T21:43:53.970Z,81.82
2023-06-10T21:46:22.396Z,81.92
2023-06-10T21:48:50.662Z,81.52
2023-06-10T21:51:19.160Z,81.25
2023-06-10T21:53:47.427Z,81.30
2023-06-10T21:56:15.836Z,80.76
2023-06-10T21:58:48.319Z,81.95
2023-06-10T22:01:18.012Z,81.65
2023-06-10T22:03:47.233Z,80.68
2023-06-10T22:06:16.215Z,80.80
2023-06-10T22:08:44.733Z,80.49
2023-06-10T22:11:13.169Z,82.16
2023-06-10T22:13:42.863Z,82.89
2023-06-10T22:16:11.855Z,81.86
2023-06-10T22:18:40.210Z,82.72
2023-06-10T22:21:08.568Z,82.47
2023-06-10T22:23:36.909Z,81.82
2023-06-10T22:26:05.399Z,83.65
2023-06-10T22:28:33.746Z,82.78
2023-06-10T22:31:02.128Z,83.38
2023-06-10T22:33:30.562Z,83.68
2023-06-10T22:35:58.998Z,83.25
2023-06-10T22:38:27.355Z,83.30
2023-06-10T22:40:55.632Z,82.78
2023-06-10T22:43:23.977Z,83.83
2023-06-10T22:45:52.362Z,83.95
2023-06-10T22:48:20.800Z,83.59
2023-06-10T22:50:49.358Z,83.25
2023-06-10T22:53:19.041Z,83.94
2023-06-10T22:55:47.347Z,84.51
2023-06-10T22:58:16.826Z,85.24
2023-06-10T23:00:46.287Z,84.75
2023-06-10T23:03:14.636Z,83.61
2023-06-10T23:05:42.935Z,84.00
2023-06-10T23:08:11.223Z,84.24
2023-06-10T23:10:39.544Z,84.47
2023-06-10T23:13:07.887Z,83.96
2023-06-10T23:15:36.417Z,84.07
2023-06-10T23:18:05.905Z,86.11
2023-06-10T23:20:34.648Z,84.91
2023-06-10T23:23:05.066Z,84.83
2023-06-10T23:25:33.870Z,85.09
2023-06-10T23:28:02.241Z,84.74
2023-06-10T23:30:30.474Z,84.25
2023-06-10T23:32:59.861Z,83.97
2023-06-10T23:35:28.325Z,86.77
2023-06-10T23:37:56.783Z,86.31
2023-06-10T23:40:25.142Z,85.48
2023-06-10T23:42:53.513Z,83.85
2023-06-10T23:45:21.953Z,83.59
2023-06-10T23:47:50.340Z,84.24
2023-06-10T23:50:18.628Z,85.44
2023-06-10T23:52:47.468Z,85.82
2023-06-10T23:55:16.877Z,86.29
2023-06-10T23:57:45.177Z,85.45
